Arena, Wisconsin
Current Conditions -  °F | °C
As of 9:56 AM on Monday 24 Nov 2014 (Local Time) from KLNR Reporting Station
Light Snow Light Snow  
Wind Chill: 28°   Ceiling: 1200
Heat Index: 36°   Visibility: 0.75mi
Dew Point: 31°   Wind: 13mph
Humidity: 82%   Direction: 280°W
Pressure: 29.23"   Gusts: NA
Location:  43.17°N, 89.91°W
Report Text: KLNR 241556Z AUTO 28011KT 3/4SM -SN SCT007 OVC012 02/M01 A2923 RMK AO2 SLP897 P0005 T00221006
Loading
Personal Weather Stations






























Interactive Weather Map New forecast layout! Learn more

10-Day Weather Forecast

Advertisements
Track Severe Weather on mobile